St Bees, United Kingdom
Current Conditions -  °F | °C
As of 9:50 AM on Wednesday 26 Nov 2014 (Local Time) from EGNC Reporting Station
Light Rain Light Rain  
Wind Chill: 37°   Ceiling: 2500
Heat Index: 41°   Visibility: 4mi
Dew Point: 41°   Wind: 6mph
Humidity: 100%   Direction: 50°NE
Pressure: 29.97"   Gusts: NA
Location:  54.49°N, 3.59°W
Report Text: EGNC 260950Z 05005KT 7000 -RA FEW009 SCT015 BKN025 05/05 Q1015
Loading
Personal Weather Stations






























Interactive Weather Map New forecast layout! Learn more

10-Day Weather Forecast

Advertisements
Track Severe Weather on mobile